Time;durP1;ratioP1;P1;durP2;ratioP2;P2;SDS_P1;SDS_P2;PMS_P1;PMS_P2;Temp;Humidity;BMP_temperature;BMP_pressure;BME280_temperature;BME280_humidity;BME280_pressure;Samples;Min_cycle;Max_cycle;Signal;HPM_P1;HPM_P2
2022/09/08 00:01:43;;;;;;;;;;;;;;;;;;5086990;28;20003;-71
2022/09/08 00:04:10;;;;;;;;;;;;;;;;;;5086260;28;20326;-71
2022/09/08 00:06:37;;;;;;;;;;;;;;;;;;5088745;28;20334;-72
2022/09/08 00:09:04;;;;;;;;;;;;;;;;;;5087176;28;20283;-72
2022/09/08 00:11:31;;;;;;;;;;;;;;;;;;5087335;28;20589;-71
2022/09/08 00:13:58;;;;;;;;;;;;;;;;;;5083474;28;20018;-72
2022/09/08 00:16:25;;;;;;;;;;;;;;;;;;5084149;28;19924;-71
2022/09/08 00:18:52;;;;;;;;;;;;;;;;;;5084175;28;19932;-71
2022/09/08 00:21:19;;;;;;;;;;;;;;;;;;5087848;28;19924;-71
2022/09/08 00:23:46;;;;;;;;;;;;;;;;;;5085724;28;19934;-71
2022/09/08 00:26:13;;;;;;;;;;;;;;;;;;5086444;28;19969;-71
2022/09/08 00:28:40;;;;;;;;;;;;;;;;;;5085189;28;19924;-72
2022/09/08 00:31:07;;;;;;;;;;;;;;;;;;5087088;28;20294;-72
2022/09/08 00:33:34;;;;;;;;;;;;;;;;;;5085410;28;19937;-72
2022/09/08 00:36:03;;;;;;;;;;;;;;;;;;5083815;28;19928;-73
2022/09/08 00:38:30;;;;;;;;;;;;;;;;;;5087641;28;19955;-71
2022/09/08 00:40:57;;;;;;;;;;;;;;;;;;5088718;28;19924;-72
2022/09/08 00:43:24;;;;;;;;;;;;;;;;;;5086191;28;19924;-73
2022/09/08 00:45:51;;;;;;;;;;;;;;;;;;5088469;28;19924;-72
2022/09/08 00:48:19;;;;;;;;;;;;;;;;;;5086822;28;19930;-72
2022/09/08 00:50:46;;;;;;;;;;;;;;;;;;5087662;28;20386;-71
2022/09/08 00:53:13;;;;;;;;;;;;;;;;;;5084509;28;19930;-71
2022/09/08 00:55:40;;;;;;;;;;;;;;;;;;5091186;28;19924;-72
2022/09/08 00:58:07;;;;;;;;;;;;;;;;;;5087570;28;19932;-71
2022/09/08 01:00:34;;;;;;;;;;;;;;;;;;5088501;28;19930;-71
2022/09/08 01:03:01;;;;;;;;;;;;;;;;;;5084129;28;19924;-71
2022/09/08 01:05:28;;;;;;;;;;;;;;;;;;5085503;28;19924;-71
2022/09/08 01:13:25;;;;;;;;;;;;;;;;;;5084059;28;19927;-70
2022/09/08 01:15:52;;;;;;;;;;;;;;;;;;5086378;28;19924;-70
2022/09/08 01:18:19;;;;;;;;;;;;;;;;;;5083368;28;19924;-71
2022/09/08 01:20:46;;;;;;;;;;;;;;;;;;5088969;28;20077;-71
2022/09/08 01:23:13;;;;;;;;;;;;;;;;;;5083680;28;20379;-71
2022/09/08 01:25:40;;;;;;;;;;;;;;;;;;5086133;28;19931;-71
2022/09/08 01:28:07;;;;;;;;;;;;;;;;;;5084767;28;20385;-71
2022/09/08 01:30:34;;;;;;;;;;;;;;;;;;5088457;28;19924;-71
2022/09/08 01:33:01;;;;;;;;;;;;;;;;;;5087056;28;19931;-72
2022/09/08 01:35:28;;;;;;;;;;;;;;;;;;5085620;28;19956;-71
2022/09/08 01:37:55;;;;;;;;;;;;;;;;;;5084702;28;20333;-72
2022/09/08 01:40:22;;;;;;;;;;;;;;;;;;5088569;28;20294;-73
2022/09/08 01:42:49;;;;;;;;;;;;;;;;;;5086889;28;19924;-71
2022/09/08 01:45:16;;;;;;;;;;;;;;;;;;5086458;28;19928;-71
2022/09/08 01:47:43;;;;;;;;;;;;;;;;;;5083209;28;20003;-72
2022/09/08 01:50:10;;;;;;;;;;;;;;;;;;5089689;28;19931;-72
2022/09/08 01:52:37;;;;;;;;;;;;;;;;;;5090929;28;19924;-72
2022/09/08 01:55:04;;;;;;;;;;;;;;;;;;5088876;28;19935;-71
2022/09/08 01:57:31;;;;;;;;;;;;;;;;;;5088452;28;19932;-71
2022/09/08 01:59:58;;;;;;;;;;;;;;;;;;5090440;28;19986;-71
2022/09/08 02:02:25;;;;;;;;;;;;;;;;;;5088535;28;19932;-71
2022/09/08 02:04:52;;;;;;;;;;;;;;;;;;5092947;28;19975;-72
2022/09/08 02:07:19;;;;;;;;;;;;;;;;;;5085852;28;20489;-71
2022/09/08 02:09:46;;;;;;;;;;;;;;;;;;5089475;28;19928;-72
2022/09/08 02:12:13;;;;;;;;;;;;;;;;;;5086496;28;19996;-72
2022/09/08 02:14:40;;;;;;;;;;;;;;;;;;5090355;28;20027;-71
2022/09/08 02:17:07;;;;;;;;;;;;;;;;;;5086417;28;19931;-72
2022/09/08 02:19:33;;;;;;;;;;;;;;;;;;5091582;28;19934;-72
2022/09/08 02:22:00;;;;;;;;;;;;;;;;;;5087950;28;19924;-72
2022/09/08 02:24:28;;;;;;;;;;;;;;;;;;5090400;28;20284;-72
2022/09/08 02:26:55;;;;;;;;;;;;;;;;;;5089226;28;19932;-72
2022/09/08 02:29:23;;;;;;;;;;;;;;;;;;5088401;28;20014;-71
2022/09/08 02:31:50;;;;;;;;;;;;;;;;;;5090022;28;20019;-71
2022/09/08 02:34:17;;;;;;;;;;;;;;;;;;5089390;28;19939;-72
2022/09/08 02:36:44;;;;;;;;;;;;;;;;;;5089047;28;19934;-71
2022/09/08 02:39:10;;;;;;;;;;;;;;;;;;5087389;28;19935;-71
2022/09/08 02:41:37;;;;;;;;;;;;;;;;;;5084694;28;19928;-71
2022/09/08 02:44:04;;;;;;;;;;;;;;;;;;5091337;28;20377;-70
2022/09/08 02:46:31;;;;;;;;;;;;;;;;;;5089271;28;19924;-70
2022/09/08 02:48:58;;;;;;;;;;;;;;;;;;5087205;28;19924;-71
2022/09/08 02:51:25;;;;;;;;;;;;;;;;;;5091533;28;19924;-71
2022/09/08 02:53:52;;;;;;;;;;;;;;;;;;5088272;28;19930;-72
2022/09/08 02:56:19;;;;;;;;;;;;;;;;;;5088130;28;20310;-72
2022/09/08 02:58:46;;;;;;;;;;;;;;;;;;5087727;28;19932;-71
2022/09/08 03:01:13;;;;;;;;;;;;;;;;;;5089296;28;19924;-72
2022/09/08 03:03:40;;;;;;;;;;;;;;;;;;5089069;28;20344;-72
2022/09/08 03:06:07;;;;;;;;;;;;;;;;;;5091157;28;20393;-71
2022/09/08 03:08:34;;;;;;;;;;;;;;;;;;5087815;28;20287;-71
2022/09/08 03:11:01;;;;;;;;;;;;;;;;;;5086253;28;19923;-71
2022/09/08 03:13:28;;;;;;;;;;;;;;;;;;5088364;28;19936;-72
2022/09/08 03:15:55;;;;;;;;;;;;;;;;;;5088304;28;19931;-72
2022/09/08 03:18:22;;;;;;;;;;;;;;;;;;5088290;28;19925;-71
2022/09/08 03:20:49;;;;;;;;;;;;;;;;;;5089821;28;20279;-71
2022/09/08 03:23:16;;;;;;;;;;;;;;;;;;5087288;28;19928;-71
2022/09/08 03:25:44;;;;;;;;;;;;;;;;;;5085529;28;19931;-71
2022/09/08 03:28:11;;;;;;;;;;;;;;;;;;5086825;28;20390;-71
2022/09/08 03:30:38;;;;;;;;;;;;;;;;;;5088721;28;19924;-71
2022/09/08 03:33:05;;;;;;;;;;;;;;;;;;5085565;28;19924;-70
2022/09/08 03:35:32;;;;;;;;;;;;;;;;;;5086799;28;20353;-71
2022/09/08 03:37:59;;;;;;;;;;;;;;;;;;5089805;28;19924;-70
2022/09/08 03:40:26;;;;;;;;;;;;;;;;;;5086910;28;19928;-71
2022/09/08 03:42:53;;;;;;;;;;;;;;;;;;5087401;28;19967;-70
2022/09/08 03:45:20;;;;;;;;;;;;;;;;;;5084110;28;19931;-71
2022/09/08 03:47:47;;;;;;;;;;;;;;;;;;5088544;28;20022;-71
2022/09/08 03:50:14;;;;;;;;;;;;;;;;;;5088587;28;19950;-70
2022/09/08 03:52:41;;;;;;;;;;;;;;;;;;5087487;28;19930;-71
2022/09/08 03:55:08;;;;;;;;;;;;;;;;;;5082880;28;19931;-71
2022/09/08 03:57:35;;;;;;;;;;;;;;;;;;5087561;28;19930;-70
2022/09/08 04:00:02;;;;;;;;;;;;;;;;;;5087475;28;19930;-70
2022/09/08 04:02:29;;;;;;;;;;;;;;;;;;5086969;28;19978;-72
2022/09/08 04:04:56;;;;;;;;;;;;;;;;;;5089594;28;20306;-71
2022/09/08 04:07:23;;;;;;;;;;;;;;;;;;5085180;28;19924;-70
2022/09/08 04:09:50;;;;;;;;;;;;;;;;;;5086891;28;20586;-70
2022/09/08 04:12:17;;;;;;;;;;;;;;;;;;5085220;28;19925;-71
2022/09/08 04:14:44;;;;;;;;;;;;;;;;;;5087717;28;20026;-70
2022/09/08 04:17:11;;;;;;;;;;;;;;;;;;5087455;28;19940;-70
2022/09/08 04:19:38;;;;;;;;;;;;;;;;;;5087356;28;19924;-71
2022/09/08 04:22:06;;;;;;;;;;;;;;;;;;5084196;28;20026;-72
2022/09/08 04:24:33;;;;;;;;;;;;;;;;;;5089232;28;19924;-70
2022/09/08 04:27:00;;;;;;;;;;;;;;;;;;5088049;28;20039;-70
2022/09/08 04:29:27;;;;;;;;;;;;;;;;;;5089325;28;19924;-69
2022/09/08 04:31:54;;;;;;;;;;;;;;;;;;5081700;28;20027;-71
2022/09/08 04:34:21;;;;;;;;;;;;;;;;;;5088758;28;20006;-70
2022/09/08 04:36:48;;;;;;;;;;;;;;;;;;5087224;28;20290;-69
2022/09/08 04:39:16;;;;;;;;;;;;;;;;;;5088179;28;19924;-70
2022/09/08 04:41:43;;;;;;;;;;;;;;;;;;5085684;28;20303;-71
2022/09/08 04:44:10;;;;;;;;;;;;;;;;;;5086441;28;19977;-71
2022/09/08 04:46:37;;;;;;;;;;;;;;;;;;5088881;28;19946;-69
2022/09/08 04:49:04;;;;;;;;;;;;;;;;;;5087167;28;19924;-72
2022/09/08 04:51:31;;;;;;;;;;;;;;;;;;5086195;28;20310;-71
2022/09/08 04:53:58;;;;;;;;;;;;;;;;;;5085389;28;19924;-71
2022/09/08 04:56:25;;;;;;;;;;;;;;;;;;5086557;28;19928;-71
2022/09/08 04:58:52;;;;;;;;;;;;;;;;;;5083717;28;20269;-70
2022/09/08 05:01:19;;;;;;;;;;;;;;;;;;5083906;28;19974;-71
2022/09/08 05:03:46;;;;;;;;;;;;;;;;;;5083819;28;19931;-69
2022/09/08 05:06:13;;;;;;;;;;;;;;;;;;5084498;28;19999;-70
2022/09/08 05:08:40;;;;;;;;;;;;;;;;;;5084454;28;19924;-69
2022/09/08 05:11:07;;;;;;;;;;;;;;;;;;5081876;28;19932;-69
2022/09/08 05:13:33;;;;;;;;;;;;;;;;;;5082411;28;19928;-68
2022/09/08 05:16:00;;;;;;;;;;;;;;;;;;5087404;28;20021;-70
2022/09/08 05:18:27;;;;;;;;;;;;;;;;;;5084479;28;19954;-70
2022/09/08 05:20:54;;;;;;;;;;;;;;;;;;5077334;28;20031;-70
2022/09/08 05:23:21;;;;;;;;;;;;;;;;;;5068114;28;19929;-71
2022/09/08 05:25:48;;;;;;;;;;;;;;;;;;5067589;28;19943;-70
2022/09/08 05:28:15;;;;;;;;;;;;;;;;;;5064982;28;19933;-70
2022/09/08 05:30:42;;;;;;;;;;;;;;;;;;5065217;28;19997;-71
2022/09/08 05:33:09;;;;;;;;;;;;;;;;;;5066512;28;20028;-70
2022/09/08 05:35:36;;;;;;;;;;;;;;;;;;5067802;28;20361;-70
2022/09/08 05:38:03;;;;;;;;;;;;;;;;;;5064881;28;20145;-71
2022/09/08 05:40:30;;;;;;;;;;;;;;;;;;5063429;28;19928;-71
2022/09/08 05:42:57;;;;;;;;;;;;;;;;;;5076794;28;19924;-71
2022/09/08 05:45:24;;;;;;;;;;;;;;;;;;5081103;28;20019;-71
2022/09/08 05:47:51;;;;;;;;;;;;;;;;;;5066095;28;19939;-71
2022/09/08 05:50:18;;;;;;;;;;;;;;;;;;5065034;28;19978;-71
2022/09/08 05:52:45;;;;;;;;;;;;;;;;;;5064748;28;20351;-69
2022/09/08 05:55:13;;;;;;;;;;;;;;;;;;5076190;28;19931;-72
2022/09/08 05:57:40;;;;;;;;;;;;;;;;;;5089685;28;19939;-71
2022/09/08 06:00:07;;;;;;;;;;;;;;;;;;5084765;28;20027;-71
2022/09/08 06:02:34;;;;;;;;;;;;;;;;;;5074967;28;20014;-71
2022/09/08 06:05:01;;;;;;;;;;;;;;;;;;5079873;28;20383;-71
2022/09/08 06:07:28;;;;;;;;;;;;;;;;;;5086026;28;19924;-71
2022/09/08 06:09:55;;;;;;;;;;;;;;;;;;5076912;28;19924;-70
2022/09/08 06:12:22;;;;;;;;;;;;;;;;;;5078251;28;20302;-70
2022/09/08 06:14:49;;;;;;;;;;;;;;;;;;5084679;28;20379;-70
2022/09/08 06:17:16;;;;;;;;;;;;;;;;;;5083981;28;20394;-70
2022/09/08 06:19:43;;;;;;;;;;;;;;;;;;5084195;28;19939;-69
2022/09/08 06:22:10;;;;;;;;;;;;;;;;;;5082931;28;19927;-69
2022/09/08 06:24:37;;;;;;;;;;;;;;;;;;5084210;28;20317;-70
2022/09/08 06:27:04;;;;;;;;;;;;;;;;;;5077273;28;20375;-70
2022/09/08 06:29:31;;;;;;;;;;;;;;;;;;5085564;28;20387;-70
2022/09/08 06:31:58;;;;;;;;;;;;;;;;;;5081798;28;21146;-70
2022/09/08 06:34:26;;;;;;;;;;;;;;;;;;5082528;28;20023;-72
2022/09/08 06:36:53;;;;;;;;;;;;;;;;;;5088972;28;19928;-71
2022/09/08 06:39:20;;;;;;;;;;;;;;;;;;5081982;28;20060;-71
2022/09/08 06:41:47;;;;;;;;;;;;;;;;;;5086461;28;20007;-71
2022/09/08 06:44:16;;;;;;;;;;;;;;;;;;5088817;28;20023;-71
2022/09/08 06:46:43;;;;;;;;;;;;;;;;;;5087216;28;20011;-70
2022/09/08 06:49:11;;;;;;;;;;;;;;;;;;5088792;28;19970;-71
2022/09/08 06:51:38;;;;;;;;;;;;;;;;;;5088812;28;19955;-71
2022/09/08 06:54:05;;;;;;;;;;;;;;;;;;5084518;28;19932;-71
2022/09/08 06:56:32;;;;;;;;;;;;;;;;;;5085072;28;19930;-72
2022/09/08 06:58:59;;;;;;;;;;;;;;;;;;5085068;28;19924;-71
2022/09/08 07:01:26;;;;;;;;;;;;;;;;;;5085050;28;19931;-71
2022/09/08 07:03:53;;;;;;;;;;;;;;;;;;5083710;28;20027;-71
2022/09/08 07:06:20;;;;;;;;;;;;;;;;;;5085113;28;19932;-70
2022/09/08 07:09:03;;;;;;;;;;;;;;;;;;5084390;28;19932;-71
2022/09/08 07:11:30;;;;;;;;;;;;;;;;;;5078337;28;20371;-70
2022/09/08 07:13:57;;;;;;;;;;;;;;;;;;5084890;28;19939;-69
2022/09/08 07:16:24;;;;;;;;;;;;;;;;;;5082582;28;19932;-69
2022/09/08 07:18:51;;;;;;;;;;;;;;;;;;5079071;28;19973;-68
2022/09/08 07:21:18;;;;;;;;;;;;;;;;;;5083774;28;19924;-70
2022/09/08 07:23:45;;;;;;;;;;;;;;;;;;5079627;28;19938;-69
2022/09/08 07:26:12;;;;;;;;;;;;;;;;;;5093958;28;19931;-69
2022/09/08 07:28:39;;;;;;;;;;;;;;;;;;5083553;28;20271;-69
2022/09/08 07:31:06;;;;;;;;;;;;;;;;;;5080362;28;19935;-70
2022/09/08 07:33:33;;;;;;;;;;;;;;;;;;5081687;28;20462;-69
2022/09/08 07:36:00;;;;;;;;;;;;;;;;;;5082117;28;20413;-69
2022/09/08 07:38:27;;;;;;;;;;;;;;;;;;5080928;28;20017;-70
2022/09/08 07:40:54;;;;;;;;;;;;;;;;;;5084478;28;20547;-69
2022/09/08 07:43:21;;;;;;;;;;;;;;;;;;5077924;28;19939;-69
2022/09/08 07:45:49;;;;;;;;;;;;;;;;;;5082036;28;20382;-69
2022/09/08 07:48:16;;;;;;;;;;;;;;;;;;5086838;28;19934;-69
2022/09/08 07:50:55;;;;;;;;;;;;;;;;;;5083866;28;20011;-69
2022/09/08 07:53:22;;;;;;;;;;;;;;;;;;5083911;28;20291;-69
2022/09/08 07:55:49;;;;;;;;;;;;;;;;;;5089792;28;20331;-69
2022/09/08 07:58:16;;;;;;;;;;;;;;;;;;5086399;28;19928;-69
2022/09/08 08:00:44;;;;;;;;;;;;;;;;;;5085282;28;20441;-69
2022/09/08 08:03:11;;;;;;;;;;;;;;;;;;5087753;28;20304;-68
2022/09/08 08:05:38;;;;;;;;;;;;;;;;;;5087124;28;20298;-68
2022/09/08 08:08:05;;;;;;;;;;;;;;;;;;5085966;28;19924;-68
2022/09/08 08:10:32;;;;;;;;;;;;;;;;;;5087196;28;19928;-68
2022/09/08 08:12:59;;;;;;;;;;;;;;;;;;5081316;28;19924;-67
2022/09/08 08:15:26;;;;;;;;;;;;;;;;;;5081608;28;19924;-67
2022/09/08 08:17:53;;;;;;;;;;;;;;;;;;5081695;28;20297;-67
2022/09/08 08:20:20;;;;;;;;;;;;;;;;;;5085415;28;19932;-67
2022/09/08 08:22:47;;;;;;;;;;;;;;;;;;5086722;28;19939;-67
2022/09/08 08:25:14;;;;;;;;;;;;;;;;;;5084123;28;20723;-67
2022/09/08 08:27:41;;;;;;;;;;;;;;;;;;5082434;28;19924;-67
2022/09/08 08:30:08;;;;;;;;;;;;;;;;;;5085282;28;19924;-66
2022/09/08 08:32:35;;;;;;;;;;;;;;;;;;5083497;28;19928;-67
2022/09/08 08:35:02;;;;;;;;;;;;;;;;;;5083807;28;19932;-67
2022/09/08 08:37:29;;;;;;;;;;;;;;;;;;5080010;28;19942;-67
2022/09/08 08:39:56;;;;;;;;;;;;;;;;;;5082630;28;19934;-66
2022/09/08 08:42:23;;;;;;;;;;;;;;;;;;5079593;28;19924;-67
2022/09/08 08:44:50;;;;;;;;;;;;;;;;;;5083276;28;19924;-67
2022/09/08 08:47:17;;;;;;;;;;;;;;;;;;5083071;28;19964;-67
2022/09/08 08:49:44;;;;;;;;;;;;;;;;;;5082657;28;19933;-67
2022/09/08 08:52:11;;;;;;;;;;;;;;;;;;5084091;28;20099;-67
2022/09/08 08:54:38;;;;;;;;;;;;;;;;;;5083123;28;19954;-68
2022/09/08 08:57:05;;;;;;;;;;;;;;;;;;5081388;28;20147;-68
2022/09/08 08:59:32;;;;;;;;;;;;;;;;;;5083350;28;20448;-68
2022/09/08 09:01:59;;;;;;;;;;;;;;;;;;5078613;28;19930;-68
2022/09/08 09:04:26;;;;;;;;;;;;;;;;;;5081055;28;20367;-67
2022/09/08 09:06:53;;;;;;;;;;;;;;;;;;5079505;28;19932;-68
2022/09/08 09:09:20;;;;;;;;;;;;;;;;;;5079479;28;19932;-68
2022/09/08 09:11:47;;;;;;;;;;;;;;;;;;5076597;28;20026;-69
2022/09/08 09:14:14;;;;;;;;;;;;;;;;;;5082007;28;19978;-66
2022/09/08 09:16:41;;;;;;;;;;;;;;;;;;5074245;28;19924;-66
2022/09/08 09:19:08;;;;;;;;;;;;;;;;;;5078233;28;20407;-66
2022/09/08 09:21:35;;;;;;;;;;;;;;;;;;5077662;28;20426;-66
2022/09/08 09:24:02;;;;;;;;;;;;;;;;;;5082573;28;19924;-66
2022/09/08 09:26:30;;;;;;;;;;;;;;;;;;5085945;28;20022;-67
2022/09/08 09:28:57;;;;;;;;;;;;;;;;;;5078540;28;19947;-67
2022/09/08 09:31:26;;;;;;;;;;;;;;;;;;5079919;28;19930;-67
2022/09/08 09:33:53;;;;;;;;;;;;;;;;;;5077932;28;19985;-68
2022/09/08 09:36:20;;;;;;;;;;;;;;;;;;5081327;28;19924;-66
2022/09/08 09:38:47;;;;;;;;;;;;;;;;;;5077737;28;19931;-67
2022/09/08 09:41:14;;;;;;;;;;;;;;;;;;5077678;28;19932;-67
2022/09/08 09:43:41;;;;;;;;;;;;;;;;;;5075265;28;20058;-67
2022/09/08 09:46:08;;;;;;;;;;;;;;;;;;5075369;28;19928;-67
2022/09/08 09:48:35;;;;;;;;;;;;;;;;;;5077186;28;20017;-66
2022/09/08 09:51:02;;;;;;;;;;;;;;;;;;5077495;28;20106;-66
2022/09/08 09:53:29;;;;;;;;;;;;;;;;;;5073048;28;19928;-67
2022/09/08 09:55:56;;;;;;;;;;;;;;;;;;5088613;28;19924;-68
2022/09/08 09:58:23;;;;;;;;;;;;;;;;;;5078438;28;19928;-67
2022/09/08 10:00:49;;;;;;;;;;;;;;;;;;5078146;28;19925;-66
2022/09/08 10:03:16;;;;;;;;;;;;;;;;;;5071451;28;19932;-67
2022/09/08 10:05:46;;;;;;;;;;;;;;;;;;5072343;28;20294;-66
2022/09/08 10:08:13;;;;;;;;;;;;;;;;;;5081468;28;19924;-66
2022/09/08 10:10:40;;;;;;;;;;;;;;;;;;5080468;28;20244;-65
2022/09/08 10:13:06;;;;;;;;;;;;;;;;;;5084821;28;20387;-65
2022/09/08 10:15:33;;;;;;;;;;;;;;;;;;5082949;28;19930;-65
2022/09/08 10:18:00;;;;;;;;;;;;;;;;;;5084274;28;19936;-66
2022/09/08 10:20:27;;;;;;;;;;;;;;;;;;5089149;28;20536;-66
2022/09/08 10:22:54;;;;;;;;;;;;;;;;;;5089263;28;19924;-65
2022/09/08 10:25:22;;;;;;;;;;;;;;;;;;5084439;28;20389;-65
2022/09/08 10:27:49;;;;;;;;;;;;;;;;;;5086083;28;20263;-66
2022/09/08 10:30:16;;;;;;;;;;;;;;;;;;5088314;28;20014;-66
2022/09/08 10:32:43;;;;;;;;;;;;;;;;;;5088078;28;19931;-65
2022/09/08 10:35:10;;;;;;;;;;;;;;;;;;5090037;28;19923;-65
2022/09/08 10:37:37;;;;;;;;;;;;;;;;;;5086821;28;19932;-66
2022/09/08 10:40:04;;;;;;;;;;;;;;;;;;5091809;28;19924;-65
2022/09/08 10:42:31;;;;;;;;;;;;;;;;;;5091120;28;19946;-67
2022/09/08 10:44:58;;;;;;;;;;;;;;;;;;5087825;28;19927;-66
2022/09/08 10:47:25;;;;;;;;;;;;;;;;;;5087429;28;19931;-66
2022/09/08 10:49:52;;;;;;;;;;;;;;;;;;5088189;28;19931;-66
2022/09/08 10:52:19;;;;;;;;;;;;;;;;;;5087548;28;20406;-65
2022/09/08 10:54:46;;;;;;;;;;;;;;;;;;5089271;28;19925;-65
2022/09/08 10:57:13;;;;;;;;;;;;;;;;;;5087957;28;19932;-65
2022/09/08 10:59:40;;;;;;;;;;;;;;;;;;5086995;28;19924;-66
2022/09/08 11:02:07;;;;;;;;;;;;;;;;;;5087969;28;19939;-66
2022/09/08 11:04:34;;;;;;;;;;;;;;;;;;5081319;28;19994;-67
2022/09/08 11:07:01;;;;;;;;;;;;;;;;;;5079847;28;19924;-66
2022/09/08 11:09:28;;;;;;;;;;;;;;;;;;5083448;28;20307;-66
2022/09/08 11:11:55;;;;;;;;;;;;;;;;;;5087362;28;20317;-66
2022/09/08 11:14:22;;;;;;;;;;;;;;;;;;5088130;28;19932;-65
2022/09/08 11:16:49;;;;;;;;;;;;;;;;;;5090250;28;19924;-66
2022/09/08 11:19:16;;;;;;;;;;;;;;;;;;5086716;28;19932;-66
2022/09/08 11:21:46;;;;;;;;;;;;;;;;;;5086871;28;19924;-65
2022/09/08 11:24:13;;;;;;;;;;;;;;;;;;5084128;28;22448;-66
2022/09/08 11:26:39;;;;;;;;;;;;;;;;;;5087900;28;20040;-65
2022/09/08 11:29:09;;;;;;;;;;;;;;;;;;5085853;28;19924;-65
2022/09/08 11:31:36;;;;;;;;;;;;;;;;;;5079337;28;20283;-66
2022/09/08 11:34:03;;;;;;;;;;;;;;;;;;5086159;28;19978;-66
2022/09/08 11:36:30;;;;;;;;;;;;;;;;;;5089788;28;20004;-66
2022/09/08 11:38:57;;;;;;;;;;;;;;;;;;5083845;28;19930;-66
2022/09/08 11:41:23;;;;;;;;;;;;;;;;;;5088565;28;19928;-66
2022/09/08 11:43:51;;;;;;;;;;;;;;;;;;5085760;28;19925;-66
2022/09/08 11:46:20;;;;;;;;;;;;;;;;;;5084750;28;19924;-67
2022/09/08 11:48:47;;;;;;;;;;;;;;;;;;5085779;28;19924;-66
2022/09/08 11:51:14;;;;;;;;;;;;;;;;;;5088364;28;19930;-67
2022/09/08 11:53:41;;;;;;;;;;;;;;;;;;5086468;28;19924;-67
2022/09/08 11:56:08;;;;;;;;;;;;;;;;;;5088278;28;19930;-66
2022/09/08 11:58:35;;;;;;;;;;;;;;;;;;5087978;28;20015;-66
2022/09/08 12:01:02;;;;;;;;;;;;;;;;;;5083175;28;20356;-66
2022/09/08 12:03:29;;;;;;;;;;;;;;;;;;5087793;28;19928;-66
2022/09/08 12:05:56;;;;;;;;;;;;;;;;;;5089689;28;19924;-67
2022/09/08 12:08:23;;;;;;;;;;;;;;;;;;5086477;28;19963;-66
2022/09/08 12:10:50;;;;;;;;;;;;;;;;;;5089050;28;20027;-66
2022/09/08 12:13:17;;;;;;;;;;;;;;;;;;5078348;28;20383;-65
2022/09/08 12:15:44;;;;;;;;;;;;;;;;;;5086450;28;19924;-65
2022/09/08 12:18:11;;;;;;;;;;;;;;;;;;5084004;28;19924;-66
2022/09/08 12:20:38;;;;;;;;;;;;;;;;;;5087479;28;19930;-66
2022/09/08 12:23:05;;;;;;;;;;;;;;;;;;5084374;28;19971;-66
2022/09/08 12:25:32;;;;;;;;;;;;;;;;;;5087930;28;19924;-66
2022/09/08 12:28:00;;;;;;;;;;;;;;;;;;5085438;28;19935;-66
2022/09/08 12:30:27;;;;;;;;;;;;;;;;;;5084118;28;19931;-66
2022/09/08 12:32:54;;;;;;;;;;;;;;;;;;5085639;28;19924;-65
2022/09/08 12:35:21;;;;;;;;;;;;;;;;;;5088150;28;20261;-65
2022/09/08 12:37:48;;;;;;;;;;;;;;;;;;5082893;28;19971;-66
2022/09/08 12:40:15;;;;;;;;;;;;;;;;;;5085965;28;19932;-65
2022/09/08 12:42:42;;;;;;;;;;;;;;;;;;5077676;28;20268;-66
2022/09/08 12:45:10;;;;;;;;;;;;;;;;;;5080361;28;19932;-66
2022/09/08 12:47:37;;;;;;;;;;;;;;;;;;5080853;28;19924;-66
2022/09/08 12:50:04;;;;;;;;;;;;;;;;;;5079814;28;20299;-65
2022/09/08 12:52:31;;;;;;;;;;;;;;;;;;5074628;28;19989;-64
2022/09/08 12:54:58;;;;;;;;;;;;;;;;;;5078064;28;19935;-65
2022/09/08 12:57:25;;;;;;;;;;;;;;;;;;5077430;28;19924;-65
2022/09/08 12:59:52;;;;;;;;;;;;;;;;;;5076944;28;19932;-65
2022/09/08 13:02:19;;;;;;;;;;;;;;;;;;5079884;28;20340;-65
2022/09/08 13:04:47;;;;;;;;;;;;;;;;;;5078354;28;20383;-65
2022/09/08 13:07:14;;;;;;;;;;;;;;;;;;5077025;28;19932;-65
2022/09/08 13:09:41;;;;;;;;;;;;;;;;;;5080744;28;19924;-65
2022/09/08 13:12:08;;;;;;;;;;;;;;;;;;5080543;28;19936;-66
2022/09/08 13:14:35;;;;;;;;;;;;;;;;;;5074724;28;20007;-67
2022/09/08 13:17:02;;;;;;;;;;;;;;;;;;5078722;28;19931;-64
2022/09/08 13:19:29;;;;;;;;;;;;;;;;;;5074498;28;20464;-66
2022/09/08 13:21:56;;;;;;;;;;;;;;;;;;5081665;28;20029;-65
2022/09/08 13:24:23;;;;;;;;;;;;;;;;;;5083821;28;20288;-65
2022/09/08 13:26:50;;;;;;;;;;;;;;;;;;5073511;28;20121;-65
2022/09/08 13:29:17;;;;;;;;;;;;;;;;;;5077129;28;20502;-65
2022/09/08 13:31:44;;;;;;;;;;;;;;;;;;5078870;28;20433;-65
2022/09/08 13:34:11;;;;;;;;;;;;;;;;;;5080621;28;19924;-67
2022/09/08 13:36:38;;;;;;;;;;;;;;;;;;5085454;28;20389;-66
2022/09/08 13:39:05;;;;;;;;;;;;;;;;;;5078921;28;19924;-67
2022/09/08 13:41:35;;;;;;;;;;;;;;;;;;5084236;28;19944;-65
2022/09/08 13:44:02;;;;;;;;;;;;;;;;;;5083841;28;19924;-64
2022/09/08 13:46:29;;;;;;;;;;;;;;;;;;5082130;28;20010;-66
2022/09/08 13:48:56;;;;;;;;;;;;;;;;;;5086739;28;20015;-66
2022/09/08 13:51:23;;;;;;;;;;;;;;;;;;5086994;28;19928;-66
2022/09/08 13:53:50;;;;;;;;;;;;;;;;;;5081168;28;19966;-67
2022/09/08 13:56:17;;;;;;;;;;;;;;;;;;5085754;28;19973;-66
2022/09/08 13:58:44;;;;;;;;;;;;;;;;;;5083453;28;19936;-67
2022/09/08 14:01:11;;;;;;;;;;;;;;;;;;5085532;28;19935;-67
2022/09/08 14:03:38;;;;;;;;;;;;;;;;;;5080636;28;20011;-67
2022/09/08 14:06:05;;;;;;;;;;;;;;;;;;5082599;28;19964;-65
2022/09/08 14:08:32;;;;;;;;;;;;;;;;;;5083858;28;19928;-67
2022/09/08 14:10:59;;;;;;;;;;;;;;;;;;5086850;28;19935;-66
2022/09/08 14:13:26;;;;;;;;;;;;;;;;;;5085771;28;19928;-66
2022/09/08 14:15:53;;;;;;;;;;;;;;;;;;5085398;28;20362;-67
2022/09/08 14:18:20;;;;;;;;;;;;;;;;;;5081126;28;19934;-66
2022/09/08 14:20:47;;;;;;;;;;;;;;;;;;5086865;28;19967;-65
2022/09/08 14:23:14;;;;;;;;;;;;;;;;;;5085973;28;20043;-66
2022/09/08 14:25:41;;;;;;;;;;;;;;;;;;5082948;28;20346;-66
2022/09/08 14:28:08;;;;;;;;;;;;;;;;;;5084306;28;19928;-65
2022/09/08 14:30:35;;;;;;;;;;;;;;;;;;5086017;28;19997;-65
2022/09/08 14:33:03;;;;;;;;;;;;;;;;;;5079368;28;19924;-68
2022/09/08 14:35:30;;;;;;;;;;;;;;;;;;5082331;28;19928;-67
2022/09/08 14:37:57;;;;;;;;;;;;;;;;;;5081560;28;20299;-66
2022/09/08 14:40:24;;;;;;;;;;;;;;;;;;5083571;28;19963;-67
2022/09/08 14:42:52;;;;;;;;;;;;;;;;;;5083375;28;19924;-66
2022/09/08 14:45:19;;;;;;;;;;;;;;;;;;5088437;28;20379;-66
2022/09/08 14:47:46;;;;;;;;;;;;;;;;;;5085598;28;20034;-66
2022/09/08 14:50:15;;;;;;;;;;;;;;;;;;5090175;28;20281;-65
2022/09/08 14:52:42;;;;;;;;;;;;;;;;;;5086715;28;19930;-65
2022/09/08 14:55:11;;;;;;;;;;;;;;;;;;5085048;28;19932;-67
2022/09/08 14:57:38;;;;;;;;;;;;;;;;;;5084588;28;20291;-66
2022/09/08 15:00:06;;;;;;;;;;;;;;;;;;5082703;28;20622;-65
2022/09/08 15:02:33;;;;;;;;;;;;;;;;;;5082868;28;20426;-66
2022/09/08 15:05:00;;;;;;;;;;;;;;;;;;5085700;28;19934;-66
2022/09/08 15:07:27;;;;;;;;;;;;;;;;;;5081132;28;19956;-65
2022/09/08 15:09:54;;;;;;;;;;;;;;;;;;5082525;28;19924;-65
2022/09/08 15:12:21;;;;;;;;;;;;;;;;;;5085178;28;19928;-67
2022/09/08 15:14:48;;;;;;;;;;;;;;;;;;5081401;28;19959;-66
2022/09/08 15:17:15;;;;;;;;;;;;;;;;;;5084633;28;19928;-68
2022/09/08 15:19:43;;;;;;;;;;;;;;;;;;5087633;28;19924;-66
2022/09/08 15:22:10;;;;;;;;;;;;;;;;;;5086359;28;19990;-66
2022/09/08 15:24:37;;;;;;;;;;;;;;;;;;5081570;28;19981;-67
2022/09/08 15:27:04;;;;;;;;;;;;;;;;;;5084092;28;19932;-67
2022/09/08 15:29:31;;;;;;;;;;;;;;;;;;5083293;28;19963;-67
2022/09/08 15:31:58;;;;;;;;;;;;;;;;;;5083041;28;19952;-66
2022/09/08 15:34:26;;;;;;;;;;;;;;;;;;5082227;28;19931;-66
2022/09/08 15:36:53;;;;;;;;;;;;;;;;;;5086265;28;20254;-66
2022/09/08 15:39:20;;;;;;;;;;;;;;;;;;5084536;28;19927;-66
2022/09/08 15:41:47;;;;;;;;;;;;;;;;;;5080549;28;19932;-66
2022/09/08 15:44:14;;;;;;;;;;;;;;;;;;5082712;28;19970;-66
2022/09/08 15:46:41;;;;;;;;;;;;;;;;;;5084389;28;19924;-68
2022/09/08 15:49:10;;;;;;;;;;;;;;;;;;5084498;28;20346;-66
2022/09/08 15:51:37;;;;;;;;;;;;;;;;;;5086250;28;20011;-66
2022/09/08 15:54:04;;;;;;;;;;;;;;;;;;5082027;28;20019;-67
2022/09/08 15:56:31;;;;;;;;;;;;;;;;;;5082150;28;19928;-67
2022/09/08 15:58:58;;;;;;;;;;;;;;;;;;5086789;28;20496;-66
2022/09/08 16:01:25;;;;;;;;;;;;;;;;;;5089483;28;19924;-66
2022/09/08 16:03:54;;;;;;;;;;;;;;;;;;5086957;28;20387;-66
2022/09/08 16:06:21;;;;;;;;;;;;;;;;;;5085930;28;19947;-66
2022/09/08 16:08:48;;;;;;;;;;;;;;;;;;5090590;28;19977;-68
2022/09/08 16:11:15;;;;;;;;;;;;;;;;;;5085090;28;19924;-67
2022/09/08 16:13:42;;;;;;;;;;;;;;;;;;5083546;28;19927;-66
2022/09/08 16:16:09;;;;;;;;;;;;;;;;;;5090992;28;19967;-66
2022/09/08 16:18:36;;;;;;;;;;;;;;;;;;5084734;28;20007;-65
2022/09/08 16:21:03;;;;;;;;;;;;;;;;;;5088155;28;19930;-66
2022/09/08 16:23:30;;;;;;;;;;;;;;;;;;5086615;28;19924;-66
2022/09/08 16:25:58;;;;;;;;;;;;;;;;;;5084749;28;19930;-66
2022/09/08 16:28:26;;;;;;;;;;;;;;;;;;5082463;28;19924;-66
2022/09/08 16:30:53;;;;;;;;;;;;;;;;;;5085951;28;20337;-66
2022/09/08 16:33:20;;;;;;;;;;;;;;;;;;5088813;28;20346;-67
2022/09/08 16:35:47;;;;;;;;;;;;;;;;;;5085188;28;20007;-67
2022/09/08 16:38:15;;;;;;;;;;;;;;;;;;5085587;28;19946;-67
2022/09/08 16:40:42;;;;;;;;;;;;;;;;;;5084344;28;20036;-67
2022/09/08 16:43:09;;;;;;;;;;;;;;;;;;5079287;28;19923;-66
2022/09/08 16:45:36;;;;;;;;;;;;;;;;;;5081470;28;19931;-65
2022/09/08 16:48:03;;;;;;;;;;;;;;;;;;5075914;28;19924;-66
2022/09/08 16:50:31;;;;;;;;;;;;;;;;;;5079576;28;19951;-66